createdAt,value
2018-06-29T00:00:12.049Z,-80.00
2018-06-29T00:01:12.101Z,-78.00
2018-06-29T00:02:12.085Z,-79.00
2018-06-29T00:03:12.118Z,-79.00
2018-06-29T00:04:12.142Z,-78.00
2018-06-29T00:05:12.143Z,-79.00
2018-06-29T00:06:12.148Z,-79.00
2018-06-29T00:07:12.168Z,-79.00
2018-06-29T00:08:12.171Z,-78.00
2018-06-29T00:09:14.209Z,-78.00
2018-06-29T00:10:12.225Z,-77.00
2018-06-29T00:11:12.219Z,-78.00
2018-06-29T00:12:12.232Z,-77.00
2018-06-29T00:13:12.236Z,-78.00
2018-06-29T00:14:12.272Z,-78.00
2018-06-29T00:15:12.279Z,-78.00
2018-06-29T00:16:12.301Z,-78.00
2018-06-29T00:17:18.271Z,-77.00
2018-06-29T00:18:12.341Z,-78.00
2018-06-29T00:19:12.335Z,-77.00
2018-06-29T00:20:12.383Z,-78.00
2018-06-29T00:21:12.351Z,-78.00
2018-06-29T00:22:12.380Z,-77.00
2018-06-29T00:23:12.379Z,-78.00
2018-06-29T00:24:12.407Z,-78.00
2018-06-29T00:25:14.437Z,-78.00
2018-06-29T00:26:12.456Z,-78.00
2018-06-29T00:27:12.467Z,-78.00
2018-06-29T00:28:12.460Z,-78.00
2018-06-29T00:29:12.530Z,-78.00
2018-06-29T00:30:12.470Z,-77.00
2018-06-29T00:31:12.471Z,-77.00
2018-06-29T00:32:12.484Z,-78.00
2018-06-29T00:33:12.527Z,-78.00
2018-06-29T00:34:12.517Z,-78.00
2018-06-29T00:35:12.536Z,-78.00
2018-06-29T00:36:12.547Z,-78.00
2018-06-29T00:37:12.557Z,-78.00
2018-06-29T00:38:12.568Z,-77.00
2018-06-29T00:39:12.585Z,-78.00
2018-06-29T00:40:12.607Z,-78.00
2018-06-29T00:41:12.663Z,-78.00
2018-06-29T00:42:12.641Z,-78.00
2018-06-29T00:43:12.631Z,-78.00
2018-06-29T00:44:12.670Z,-78.00
2018-06-29T00:45:12.679Z,-78.00
2018-06-29T00:46:12.673Z,-77.00
2018-06-29T00:47:13.767Z,-78.00
2018-06-29T00:48:12.697Z,-78.00
2018-06-29T00:49:12.707Z,-78.00
2018-06-29T00:50:12.739Z,-77.00
2018-06-29T00:51:14.793Z,-77.00
2018-06-29T00:52:12.754Z,-79.00
2018-06-29T00:53:12.756Z,-78.00
2018-06-29T00:54:12.774Z,-77.00
2018-06-29T00:55:12.848Z,-78.00
2018-06-29T00:56:12.807Z,-78.00
2018-06-29T00:57:12.853Z,-78.00
2018-06-29T00:58:12.826Z,-77.00
2018-06-29T00:59:13.877Z,-78.00
2018-06-29T01:00:12.843Z,-78.00
2018-06-29T01:01:12.879Z,-77.00
2018-06-29T01:02:12.904Z,-78.00
2018-06-29T01:03:13.914Z,-78.00
2018-06-29T01:04:12.921Z,-78.00
2018-06-29T01:05:12.938Z,-77.00
2018-06-29T01:06:12.943Z,-78.00
2018-06-29T01:07:12.958Z,-77.00
2018-06-29T01:08:13.012Z,-77.00
2018-06-29T01:09:13.025Z,-77.00
2018-06-29T01:10:13.024Z,-78.00
2018-06-29T01:11:13.024Z,-77.00
2018-06-29T01:12:13.031Z,-78.00
2018-06-29T01:13:13.056Z,-77.00
2018-06-29T01:14:13.048Z,-78.00
2018-06-29T01:15:14.055Z,-77.00
2018-06-29T01:16:13.085Z,-78.00
2018-06-29T01:17:13.381Z,-77.00
2018-06-29T01:18:13.192Z,-78.00
2018-06-29T01:19:13.102Z,-78.00
2018-06-29T01:20:13.121Z,-78.00
2018-06-29T01:21:13.136Z,-78.00
2018-06-29T01:22:13.139Z,-78.00
2018-06-29T01:23:13.190Z,-78.00
2018-06-29T01:24:13.153Z,-78.00
2018-06-29T01:25:13.194Z,-78.00
2018-06-29T01:26:13.200Z,-77.00
2018-06-29T01:27:13.226Z,-78.00
2018-06-29T01:28:13.237Z,-78.00
2018-06-29T01:29:13.223Z,-77.00
2018-06-29T01:30:13.258Z,-78.00
2018-06-29T01:31:13.279Z,-78.00
2018-06-29T01:32:13.278Z,-78.00
2018-06-29T01:33:13.299Z,-78.00
2018-06-29T01:34:13.289Z,-78.00
2018-06-29T01:35:13.346Z,-79.00
2018-06-29T01:36:13.334Z,-77.00
2018-06-29T01:37:14.342Z,-77.00
2018-06-29T01:38:13.361Z,-80.00
2018-06-29T01:39:13.375Z,-78.00
2018-06-29T01:40:14.380Z,-79.00
2018-06-29T01:41:13.371Z,-80.00
2018-06-29T01:42:13.396Z,-79.00
2018-06-29T01:43:13.412Z,-80.00
2018-06-29T01:44:13.418Z,-79.00
2018-06-29T01:45:13.426Z,-80.00
2018-06-29T01:46:13.436Z,-79.00
2018-06-29T01:47:13.479Z,-79.00
2018-06-29T01:48:13.478Z,-80.00
2018-06-29T01:49:13.481Z,-79.00
2018-06-29T01:50:13.502Z,-80.00
2018-06-29T01:51:13.509Z,-79.00
2018-06-29T01:52:13.569Z,-80.00
2018-06-29T01:53:13.522Z,-79.00
2018-06-29T01:54:13.559Z,-80.00
2018-06-29T01:55:13.553Z,-79.00
2018-06-29T01:56:13.564Z,-80.00
2018-06-29T01:57:13.587Z,-79.00
2018-06-29T01:58:13.593Z,-79.00
2018-06-29T01:59:13.626Z,-80.00
2018-06-29T02:00:13.620Z,-79.00
2018-06-29T02:01:13.669Z,-80.00
2018-06-29T02:02:13.641Z,-80.00
2018-06-29T02:03:13.651Z,-80.00
2018-06-29T02:04:13.674Z,-80.00
2018-06-29T02:05:13.696Z,-80.00
2018-06-29T02:06:13.702Z,-79.00
2018-06-29T02:07:13.703Z,-79.00
2018-06-29T02:08:13.715Z,-79.00
2018-06-29T02:09:13.735Z,-80.00
2018-06-29T02:10:13.736Z,-80.00
2018-06-29T02:11:13.754Z,-80.00
2018-06-29T02:12:13.759Z,-80.00
2018-06-29T02:13:13.771Z,-79.00
2018-06-29T02:14:13.797Z,-80.00
2018-06-29T02:15:13.793Z,-79.00
2018-06-29T02:16:13.841Z,-80.00
2018-06-29T02:17:13.838Z,-79.00
2018-06-29T02:18:13.857Z,-80.00
2018-06-29T02:19:13.855Z,-79.00
2018-06-29T02:20:13.869Z,-79.00
2018-06-29T02:21:13.875Z,-79.00
2018-06-29T02:22:13.903Z,-79.00
2018-06-29T02:23:13.900Z,-79.00
2018-06-29T02:24:13.916Z,-79.00
2018-06-29T02:25:13.927Z,-80.00
2018-06-29T02:26:13.964Z,-80.00
2018-06-29T02:27:13.965Z,-79.00
2018-06-29T02:28:14.002Z,-79.00
2018-06-29T02:29:13.985Z,-79.00
2018-06-29T02:30:14.030Z,-79.00
2018-06-29T02:31:13.996Z,-80.00
2018-06-29T02:32:14.019Z,-79.00
2018-06-29T02:33:14.057Z,-80.00
2018-06-29T02:34:14.058Z,-80.00
2018-06-29T02:35:14.055Z,-79.00
2018-06-29T02:36:14.085Z,-80.00
2018-06-29T02:37:14.080Z,-79.00
2018-06-29T02:38:14.116Z,-79.00
2018-06-29T02:39:14.113Z,-79.00
2018-06-29T02:40:14.128Z,-79.00
2018-06-29T02:41:14.123Z,-79.00
2018-06-29T02:42:14.149Z,-79.00
2018-06-29T02:43:14.156Z,-79.00
2018-06-29T02:44:14.171Z,-80.00
2018-06-29T02:45:14.202Z,-79.00
2018-06-29T02:46:14.195Z,-79.00
2018-06-29T02:47:14.217Z,-79.00
2018-06-29T02:48:14.260Z,-79.00
2018-06-29T02:49:14.245Z,-80.00
2018-06-29T02:50:14.275Z,-79.00
2018-06-29T02:51:14.262Z,-79.00
2018-06-29T02:52:14.298Z,-80.00
2018-06-29T02:53:14.279Z,-79.00
2018-06-29T02:54:14.319Z,-79.00
2018-06-29T02:55:14.322Z,-79.00
2018-06-29T02:56:14.328Z,-79.00
2018-06-29T02:57:14.333Z,-80.00
2018-06-29T02:58:14.335Z,-80.00
2018-06-29T02:59:14.358Z,-80.00
2018-06-29T03:00:14.380Z,-79.00
2018-06-29T03:01:14.362Z,-79.00
2018-06-29T03:02:14.384Z,-79.00
2018-06-29T03:03:14.390Z,-79.00
2018-06-29T03:04:14.419Z,-79.00
2018-06-29T03:05:14.418Z,-79.00
2018-06-29T03:06:14.440Z,-79.00
2018-06-29T03:07:14.459Z,-80.00
2018-06-29T03:08:14.500Z,-79.00
2018-06-29T03:09:14.473Z,-79.00
2018-06-29T03:10:14.512Z,-79.00
2018-06-29T03:11:14.519Z,-79.00
2018-06-29T03:12:14.525Z,-79.00
2018-06-29T03:13:14.525Z,-79.00
2018-06-29T03:14:14.555Z,-79.00
2018-06-29T03:15:14.555Z,-79.00
2018-06-29T03:16:14.572Z,-79.00
2018-06-29T03:17:14.570Z,-79.00
2018-06-29T03:18:14.595Z,-79.00
2018-06-29T03:19:14.611Z,-79.00
2018-06-29T03:20:14.636Z,-79.00
2018-06-29T03:21:14.624Z,-80.00
2018-06-29T03:22:14.625Z,-79.00
2018-06-29T03:23:14.636Z,-79.00
2018-06-29T03:24:14.694Z,-80.00
2018-06-29T03:25:14.707Z,-79.00
2018-06-29T03:26:14.717Z,-80.00
2018-06-29T03:27:14.718Z,-79.00
2018-06-29T03:28:14.716Z,-79.00
2018-06-29T03:29:14.713Z,-79.00
2018-06-29T03:30:14.754Z,-80.00
2018-06-29T03:31:14.744Z,-79.00
2018-06-29T03:32:14.758Z,-79.00
2018-06-29T03:33:14.755Z,-79.00
2018-06-29T03:34:14.784Z,-79.00
2018-06-29T03:35:14.784Z,-79.00
2018-06-29T03:36:14.807Z,-79.00
2018-06-29T03:37:14.821Z,-79.00
2018-06-29T03:38:14.841Z,-79.00
2018-06-29T03:39:14.834Z,-79.00
2018-06-29T03:40:15.892Z,-79.00
2018-06-29T03:41:14.869Z,-79.00
2018-06-29T03:42:14.906Z,-79.00
2018-06-29T03:43:14.927Z,-78.00
2018-06-29T03:44:14.920Z,-77.00
2018-06-29T03:45:14.930Z,-77.00
2018-06-29T03:46:15.975Z,-77.00
2018-06-29T03:47:14.939Z,-78.00
2018-06-29T03:48:19.850Z,-77.00
2018-06-29T03:49:14.971Z,-77.00
2018-06-29T03:50:14.994Z,-77.00
2018-06-29T03:51:14.984Z,-77.00
2018-06-29T03:52:15.016Z,-78.00
2018-06-29T03:53:15.013Z,-77.00
2018-06-29T03:54:16.054Z,-77.00
2018-06-29T03:55:15.039Z,-77.00
2018-06-29T03:56:16.067Z,-77.00
2018-06-29T03:57:15.062Z,-77.00
2018-06-29T03:58:15.078Z,-77.00
2018-06-29T03:59:15.096Z,-77.00
2018-06-29T04:00:15.119Z,-77.00
2018-06-29T04:01:15.111Z,-77.00
2018-06-29T04:02:15.139Z,-77.00
2018-06-29T04:03:15.203Z,-77.00
2018-06-29T04:04:17.175Z,-77.00
2018-06-29T04:05:15.177Z,-77.00
2018-06-29T04:06:15.186Z,-77.00
2018-06-29T04:07:15.189Z,-77.00
2018-06-29T04:08:15.200Z,-77.00
2018-06-29T04:09:15.227Z,-77.00
2018-06-29T04:10:21.158Z,-78.00
2018-06-29T04:11:15.237Z,-77.00
2018-06-29T04:12:16.274Z,-77.00
2018-06-29T04:13:15.260Z,-77.00
2018-06-29T04:14:15.275Z,-77.00
2018-06-29T04:15:15.290Z,-77.00
2018-06-29T04:16:15.288Z,-77.00
2018-06-29T04:17:15.290Z,-77.00
2018-06-29T04:18:16.337Z,-77.00
2018-06-29T04:19:15.328Z,-77.00
2018-06-29T04:20:15.380Z,-78.00
2018-06-29T04:21:15.368Z,-77.00
2018-06-29T04:22:17.392Z,-77.00
2018-06-29T04:23:15.425Z,-77.00
2018-06-29T04:24:15.425Z,-77.00
2018-06-29T04:25:15.400Z,-77.00
2018-06-29T04:26:15.406Z,-77.00
2018-06-29T04:27:15.423Z,-77.00
2018-06-29T04:28:15.461Z,-77.00
2018-06-29T04:29:15.436Z,-77.00
2018-06-29T04:30:15.461Z,-78.00
2018-06-29T04:31:15.474Z,-76.00
2018-06-29T04:32:20.370Z,-77.00
2018-06-29T04:33:15.498Z,-77.00
2018-06-29T04:34:16.537Z,-77.00
2018-06-29T04:35:15.546Z,-77.00
2018-06-29T04:36:15.533Z,-77.00
2018-06-29T04:37:15.542Z,-78.00
2018-06-29T04:38:16.570Z,-77.00
2018-06-29T04:39:15.567Z,-77.00
2018-06-29T04:40:15.607Z,-77.00
2018-06-29T04:41:15.619Z,-77.00
2018-06-29T04:42:15.619Z,-76.00
2018-06-29T04:43:15.653Z,-76.00
2018-06-29T04:44:15.627Z,-77.00
2018-06-29T04:45:15.634Z,-77.00
2018-06-29T04:46:15.663Z,-77.00
2018-06-29T04:47:15.678Z,-76.00
2018-06-29T04:48:15.674Z,-76.00
2018-06-29T04:49:15.771Z,-77.00
2018-06-29T04:50:15.719Z,-77.00
2018-06-29T04:51:15.714Z,-77.00
2018-06-29T04:52:15.717Z,-77.00
2018-06-29T04:53:15.777Z,-77.00
2018-06-29T04:54:15.781Z,-78.00
2018-06-29T04:55:15.776Z,-77.00
2018-06-29T04:56:15.807Z,-77.00
2018-06-29T04:57:15.827Z,-77.00
2018-06-29T04:58:15.813Z,-77.00
2018-06-29T04:59:15.820Z,-77.00
2018-06-29T05:00:16.840Z,-77.00
2018-06-29T05:01:15.856Z,-77.00
2018-06-29T05:02:15.880Z,-77.00
2018-06-29T05:03:15.866Z,-76.00
2018-06-29T05:04:17.903Z,-76.00
2018-06-29T05:05:15.898Z,-77.00
2018-06-29T05:06:15.891Z,-76.00
2018-06-29T05:07:15.941Z,-77.00
2018-06-29T05:08:15.961Z,-77.00
2018-06-29T05:09:15.997Z,-77.00
2018-06-29T05:10:15.967Z,-77.00
2018-06-29T05:11:15.992Z,-77.00
2018-06-29T05:12:16.996Z,-77.00
2018-06-29T05:13:15.987Z,-77.00
2018-06-29T05:14:16.001Z,-77.00
2018-06-29T05:15:16.039Z,-77.00
2018-06-29T05:16:16.024Z,-77.00
2018-06-29T05:17:16.025Z,-77.00
2018-06-29T05:18:20.899Z,-77.00
2018-06-29T05:19:16.039Z,-77.00
2018-06-29T05:20:16.069Z,-77.00
2018-06-29T05:21:16.084Z,-77.00
2018-06-29T05:22:16.118Z,-77.00
2018-06-29T05:23:16.104Z,-77.00
2018-06-29T05:24:16.135Z,-77.00
2018-06-29T05:25:16.130Z,-77.00
2018-06-29T05:26:16.134Z,-77.00
2018-06-29T05:27:16.143Z,-77.00
2018-06-29T05:28:17.160Z,-77.00
2018-06-29T05:29:16.150Z,-77.00
2018-06-29T05:30:16.170Z,-77.00
2018-06-29T05:31:16.191Z,-77.00
2018-06-29T05:32:16.205Z,-77.00
2018-06-29T05:33:16.272Z,-77.00
2018-06-29T05:34:16.209Z,-77.00
2018-06-29T05:35:18.247Z,-77.00
2018-06-29T05:36:16.269Z,-77.00
2018-06-29T05:37:16.270Z,-77.00
2018-06-29T05:38:16.313Z,-77.00
2018-06-29T05:39:16.310Z,-77.00
2018-06-29T05:40:17.310Z,-77.00
2018-06-29T05:41:16.329Z,-78.00
2018-06-29T05:42:16.316Z,-77.00
2018-06-29T05:43:16.318Z,-77.00
2018-06-29T05:44:17.347Z,-77.00
2018-06-29T05:45:16.356Z,-77.00
2018-06-29T05:46:17.430Z,-77.00
2018-06-29T05:47:16.377Z,-77.00
2018-06-29T05:48:16.408Z,-77.00
2018-06-29T05:49:16.417Z,-77.00
2018-06-29T05:50:16.438Z,-77.00
2018-06-29T05:51:16.432Z,-77.00
2018-06-29T05:52:16.429Z,-77.00
2018-06-29T05:53:16.423Z,-77.00
2018-06-29T05:54:16.476Z,-77.00
2018-06-29T05:55:16.467Z,-76.00
2018-06-29T05:56:16.497Z,-77.00
2018-06-29T05:57:17.485Z,-80.00
2018-06-29T05:58:16.522Z,-80.00
2018-06-29T05:59:17.540Z,-80.00
2018-06-29T06:00:16.548Z,-80.00
2018-06-29T06:01:18.592Z,-80.00
2018-06-29T06:02:16.565Z,-80.00
2018-06-29T06:03:18.591Z,-80.00
2018-06-29T06:04:16.598Z,-80.00
2018-06-29T06:05:16.598Z,-80.00
2018-06-29T06:06:16.602Z,-80.00
2018-06-29T06:07:21.400Z,-80.00
2018-06-29T06:08:16.660Z,-80.00
2018-06-29T06:09:28.496Z,-81.00
2018-06-29T06:10:16.675Z,-81.00
2018-06-29T06:11:18.664Z,-81.00
2018-06-29T06:12:16.653Z,-81.00
2018-06-29T06:13:16.685Z,-81.00
2018-06-29T06:14:16.730Z,-81.00
2018-06-29T06:15:17.718Z,-81.00
2018-06-29T06:16:16.720Z,-80.00
2018-06-29T06:17:21.393Z,-80.00
2018-06-29T06:18:16.735Z,-81.00
2018-06-29T06:19:21.464Z,-80.00
2018-06-29T06:20:16.754Z,-81.00
2018-06-29T06:21:16.809Z,-81.00
2018-06-29T06:22:16.803Z,-79.00
2018-06-29T06:23:22.455Z,-82.00
2018-06-29T06:24:16.815Z,-82.00
2018-06-29T06:25:23.442Z,-82.00
2018-06-29T06:26:16.872Z,-81.00
2018-06-29T06:27:16.847Z,-81.00
2018-06-29T06:28:16.854Z,-82.00
2018-06-29T06:29:17.885Z,-81.00
2018-06-29T06:30:16.885Z,-81.00
2018-06-29T06:31:18.907Z,-81.00
2018-06-29T06:32:16.907Z,-81.00
2018-06-29T06:33:21.424Z,-81.00
2018-06-29T06:34:16.984Z,-81.00
2018-06-29T06:35:23.914Z,-80.00
2018-06-29T06:36:16.933Z,-82.00
2018-06-29T06:37:16.981Z,-83.00
2018-06-29T06:38:17.028Z,-81.00
2018-06-29T06:39:21.929Z,-81.00
2018-06-29T06:40:17.002Z,-82.00
2018-06-29T06:41:19.046Z,-81.00
2018-06-29T06:42:17.036Z,-81.00
2018-06-29T06:43:33.963Z,-81.00
2018-06-29T06:44:17.052Z,-81.00
2018-06-29T06:45:18.064Z,-81.00
2018-06-29T06:46:17.081Z,-82.00
2018-06-29T06:47:17.099Z,-81.00
2018-06-29T06:48:17.073Z,-81.00
2018-06-29T06:49:17.121Z,-81.00
2018-06-29T06:50:17.142Z,-81.00
2018-06-29T06:51:19.196Z,-81.00
2018-06-29T06:52:17.191Z,-82.00
2018-06-29T06:53:17.178Z,-79.00
2018-06-29T06:54:17.173Z,-81.00
2018-06-29T06:55:17.198Z,-81.00
2018-06-29T06:56:17.182Z,-81.00
2018-06-29T06:57:17.272Z,-81.00
2018-06-29T06:58:17.213Z,-82.00
2018-06-29T06:59:17.215Z,-81.00
2018-06-29T07:00:17.214Z,-82.00
2018-06-29T07:01:17.236Z,-81.00
2018-06-29T07:02:17.265Z,-82.00
2018-06-29T07:03:18.263Z,-81.00
2018-06-29T07:04:17.267Z,-83.00
2018-06-29T07:05:17.346Z,-77.00
2018-06-29T07:06:17.296Z,-77.00
2018-06-29T07:07:17.308Z,-77.00
2018-06-29T07:08:17.320Z,-77.00
2018-06-29T07:09:46.980Z,-83.00
2018-06-29T07:10:17.350Z,-82.00
2018-06-29T07:11:17.390Z,-83.00
2018-06-29T07:12:24.054Z,-82.00
2018-06-29T07:13:17.372Z,-84.00
2018-06-29T07:14:19.411Z,-82.00
2018-06-29T07:15:17.426Z,-83.00
2018-06-29T07:16:33.030Z,-84.00
2018-06-29T07:17:17.421Z,-81.00
2018-06-29T07:18:17.479Z,-82.00
2018-06-29T07:19:17.473Z,-81.00
2018-06-29T07:20:24.431Z,-81.00
2018-06-29T07:21:17.465Z,-80.00
2018-06-29T07:22:17.497Z,-81.00
2018-06-29T07:23:17.511Z,-81.00
2018-06-29T07:24:23.463Z,-81.00
2018-06-29T07:25:17.566Z,-81.00
2018-06-29T07:26:18.545Z,-81.00
2018-06-29T07:27:17.543Z,-81.00
2018-06-29T07:28:17.543Z,-81.00
2018-06-29T07:29:17.597Z,-81.00
2018-06-29T07:30:19.637Z,-82.00
2018-06-29T07:31:17.627Z,-82.00
2018-06-29T07:32:39.611Z,-81.00
2018-06-29T07:33:17.616Z,-81.00
2018-06-29T07:34:17.597Z,-81.00
2018-06-29T07:35:18.677Z,-80.00
2018-06-29T07:36:17.709Z,-82.00
2018-06-29T07:37:23.448Z,-83.00
2018-06-29T07:38:17.665Z,-81.00
2018-06-29T07:39:18.694Z,-81.00
2018-06-29T07:40:17.674Z,-81.00
2018-06-29T07:41:18.758Z,-83.00
2018-06-29T07:42:17.714Z,-82.00
2018-06-29T07:43:19.768Z,-81.00
2018-06-29T07:44:17.748Z,-81.00
2018-06-29T07:45:22.450Z,-81.00
2018-06-29T07:46:17.738Z,-81.00
2018-06-29T07:47:28.449Z,-81.00
2018-06-29T07:48:17.768Z,-80.00
2018-06-29T07:49:24.509Z,-81.00
2018-06-29T07:50:17.884Z,-83.00
2018-06-29T07:51:32.482Z,-84.00
2018-06-29T07:52:17.850Z,-80.00
2018-06-29T07:53:18.850Z,-82.00
2018-06-29T07:54:17.903Z,-81.00
2018-06-29T07:55:17.915Z,-81.00
2018-06-29T07:56:17.925Z,-81.00
2018-06-29T07:57:17.901Z,-82.00
2018-06-29T07:58:17.974Z,-83.00
2018-06-29T07:59:17.906Z,-81.00
2018-06-29T08:00:17.941Z,-81.00
2018-06-29T08:01:17.913Z,-82.00
2018-06-29T08:02:17.981Z,-83.00
2018-06-29T08:03:30.985Z,-81.00
2018-06-29T08:04:17.974Z,-82.00
2018-06-29T08:05:19.986Z,-82.00
2018-06-29T08:06:17.989Z,-82.00
2018-06-29T08:07:23.976Z,-81.00
2018-06-29T08:08:18.048Z,-82.00
2018-06-29T08:09:23.099Z,-81.00
2018-06-29T08:10:18.068Z,-81.00
2018-06-29T08:11:18.197Z,-81.00
2018-06-29T08:12:18.048Z,-82.00
2018-06-29T08:13:18.095Z,-81.00
2018-06-29T08:14:18.063Z,-81.00
2018-06-29T08:15:25.026Z,-82.00
2018-06-29T08:16:18.089Z,-81.00
2018-06-29T08:17:23.977Z,-81.00
2018-06-29T08:18:18.111Z,-82.00
2018-06-29T08:19:23.981Z,-80.00
2018-06-29T08:20:18.153Z,-81.00
2018-06-29T08:21:19.187Z,-80.00
2018-06-29T08:22:18.207Z,-82.00
2018-06-29T08:23:22.959Z,-81.00
2018-06-29T08:24:18.255Z,-81.00
2018-06-29T08:25:18.309Z,-81.00
2018-06-29T08:26:18.241Z,-81.00
2018-06-29T08:27:18.232Z,-81.00
2018-06-29T08:28:18.251Z,-80.00
2018-06-29T08:29:18.254Z,-79.00
2018-06-29T08:30:18.280Z,-79.00
2018-06-29T08:31:18.280Z,-79.00
2018-06-29T08:32:18.315Z,-79.00
2018-06-29T08:33:18.310Z,-78.00
2018-06-29T08:34:18.326Z,-79.00
2018-06-29T08:35:18.335Z,-79.00
2018-06-29T08:36:18.319Z,-78.00
2018-06-29T08:37:18.360Z,-79.00
2018-06-29T08:38:18.356Z,-78.00
2018-06-29T08:39:18.387Z,-78.00
2018-06-29T08:40:18.394Z,-79.00
2018-06-29T08:41:18.400Z,-78.00
2018-06-29T08:42:18.402Z,-79.00
2018-06-29T08:43:18.428Z,-79.00
2018-06-29T08:44:18.450Z,-79.00
2018-06-29T08:45:18.497Z,-79.00
2018-06-29T08:46:18.470Z,-79.00
2018-06-29T08:47:18.477Z,-79.00
2018-06-29T08:48:18.470Z,-79.00
2018-06-29T08:49:18.529Z,-79.00
2018-06-29T08:50:18.523Z,-79.00
2018-06-29T08:51:18.543Z,-79.00
2018-06-29T08:52:18.578Z,-79.00
2018-06-29T08:53:18.555Z,-79.00
2018-06-29T08:54:18.546Z,-80.00
2018-06-29T08:55:18.582Z,-79.00
2018-06-29T08:56:18.574Z,-78.00
2018-06-29T08:57:18.628Z,-80.00
2018-06-29T08:58:18.612Z,-79.00
2018-06-29T08:59:18.620Z,-79.00
2018-06-29T09:00:18.621Z,-79.00
2018-06-29T09:01:18.657Z,-79.00
2018-06-29T09:02:18.675Z,-79.00
2018-06-29T09:03:18.728Z,-79.00
2018-06-29T09:04:18.690Z,-79.00
2018-06-29T09:05:18.784Z,-79.00
2018-06-29T09:06:18.701Z,-79.00
2018-06-29T09:07:18.737Z,-79.00
2018-06-29T09:08:18.819Z,-79.00
2018-06-29T09:09:18.826Z,-79.00
2018-06-29T09:10:18.765Z,-79.00
2018-06-29T09:11:18.869Z,-79.00
2018-06-29T09:12:18.788Z,-79.00
2018-06-29T09:13:18.852Z,-79.00
2018-06-29T09:14:18.812Z,-79.00
2018-06-29T09:15:18.872Z,-79.00
2018-06-29T09:16:18.842Z,-79.00
2018-06-29T09:17:18.911Z,-79.00
2018-06-29T09:18:18.868Z,-79.00
2018-06-29T09:19:18.900Z,-79.00
2018-06-29T09:20:18.906Z,-79.00
2018-06-29T09:21:19.942Z,-80.00
2018-06-29T09:22:18.908Z,-79.00
2018-06-29T09:23:19.020Z,-80.00
2018-06-29T09:24:18.975Z,-82.00
2018-06-29T09:25:19.119Z,-79.00
2018-06-29T09:26:18.978Z,-80.00
2018-06-29T09:27:19.091Z,-79.00
2018-06-29T09:28:19.018Z,-79.00
2018-06-29T09:29:18.999Z,-78.00
2018-06-29T09:30:19.045Z,-78.00
2018-06-29T09:31:19.109Z,-79.00
2018-06-29T09:32:19.240Z,-78.00
2018-06-29T09:33:19.044Z,-78.00
2018-06-29T09:34:19.101Z,-79.00
2018-06-29T09:35:19.110Z,-79.00
2018-06-29T09:36:19.180Z,-79.00
2018-06-29T09:37:19.220Z,-78.00
2018-06-29T09:38:19.155Z,-78.00
2018-06-29T09:39:19.239Z,-78.00
2018-06-29T09:40:19.157Z,-79.00
2018-06-29T09:41:19.246Z,-79.00
2018-06-29T09:42:19.185Z,-78.00
2018-06-29T09:43:19.261Z,-79.00
2018-06-29T09:44:19.245Z,-78.00
2018-06-29T09:45:19.298Z,-79.00
2018-06-29T09:46:19.219Z,-80.00
2018-06-29T09:47:19.286Z,-78.00
2018-06-29T09:48:19.261Z,-79.00
2018-06-29T09:49:19.304Z,-78.00
2018-06-29T09:50:19.303Z,-79.00
2018-06-29T09:51:19.401Z,-79.00
2018-06-29T09:52:19.326Z,-79.00
2018-06-29T09:53:19.430Z,-80.00
2018-06-29T09:54:19.334Z,-78.00
2018-06-29T09:55:19.351Z,-78.00
2018-06-29T09:56:19.394Z,-78.00
2018-06-29T09:57:19.481Z,-79.00
2018-06-29T09:58:19.399Z,-79.00
2018-06-29T09:59:19.439Z,-78.00
2018-06-29T10:00:19.422Z,-80.00
2018-06-29T10:01:19.598Z,-78.00
2018-06-29T10:02:19.487Z,-79.00
2018-06-29T10:03:20.510Z,-79.00
2018-06-29T10:04:19.476Z,-79.00
2018-06-29T10:05:19.618Z,-78.00
2018-06-29T10:06:19.516Z,-78.00
2018-06-29T10:07:19.611Z,-78.00
2018-06-29T10:08:19.541Z,-78.00
2018-06-29T10:09:19.619Z,-78.00
2018-06-29T10:10:19.580Z,-78.00
2018-06-29T10:11:19.665Z,-79.00
2018-06-29T10:12:19.573Z,-79.00
2018-06-29T10:13:19.669Z,-79.00
2018-06-29T10:14:19.638Z,-79.00
2018-06-29T10:15:19.656Z,-79.00
2018-06-29T10:16:19.691Z,-79.00
2018-06-29T10:17:19.693Z,-80.00
2018-06-29T10:18:19.695Z,-80.00
2018-06-29T10:19:19.809Z,-79.00
2018-06-29T10:20:19.785Z,-80.00
2018-06-29T10:21:19.820Z,-80.00
2018-06-29T10:22:19.766Z,-78.00
2018-06-29T10:23:19.832Z,-80.00
2018-06-29T10:24:19.876Z,-79.00
2018-06-29T10:25:19.934Z,-79.00
2018-06-29T10:26:19.797Z,-78.00
2018-06-29T10:27:19.934Z,-79.00
2018-06-29T10:28:19.825Z,-78.00
2018-06-29T10:29:19.879Z,-78.00
2018-06-29T10:30:19.854Z,-78.00
2018-06-29T10:31:20.239Z,-79.00
2018-06-29T10:32:19.897Z,-79.00
2018-06-29T10:33:19.876Z,-79.00
2018-06-29T10:34:19.887Z,-79.00
2018-06-29T10:35:19.925Z,-79.00
2018-06-29T10:36:20.054Z,-79.00
2018-06-29T10:37:19.936Z,-79.00
2018-06-29T10:38:19.948Z,-79.00
2018-06-29T10:39:19.963Z,-80.00
2018-06-29T10:40:19.990Z,-79.00
2018-06-29T10:41:20.014Z,-79.00
2018-06-29T10:42:20.007Z,-79.00
2018-06-29T10:43:20.117Z,-79.00
2018-06-29T10:44:20.047Z,-80.00
2018-06-29T10:45:20.271Z,-80.00
2018-06-29T10:46:20.081Z,-79.00
2018-06-29T10:47:21.170Z,-79.00
2018-06-29T10:48:20.095Z,-79.00
2018-06-29T10:49:20.225Z,-81.00
2018-06-29T10:50:20.134Z,-79.00
2018-06-29T10:51:20.265Z,-79.00
2018-06-29T10:52:20.168Z,-79.00
2018-06-29T10:53:20.270Z,-79.00
2018-06-29T10:54:20.191Z,-79.00
2018-06-29T10:55:20.293Z,-80.00
2018-06-29T10:56:20.222Z,-80.00
2018-06-29T10:57:20.289Z,-79.00
2018-06-29T10:58:20.237Z,-81.00
2018-06-29T10:59:20.423Z,-80.00
2018-06-29T11:00:20.297Z,-81.00
2018-06-29T11:01:21.473Z,-81.00
2018-06-29T11:02:20.320Z,-80.00
2018-06-29T11:03:20.439Z,-80.00
2018-06-29T11:04:20.349Z,-80.00
2018-06-29T11:05:20.384Z,-80.00
2018-06-29T11:06:20.469Z,-80.00
2018-06-29T11:07:20.378Z,-80.00
2018-06-29T11:08:20.494Z,-80.00
2018-06-29T11:09:20.405Z,-80.00
2018-06-29T11:10:20.601Z,-80.00
2018-06-29T11:11:20.455Z,-79.00
2018-06-29T11:12:20.491Z,-79.00
2018-06-29T11:13:20.464Z,-80.00
2018-06-29T11:14:20.614Z,-80.00
2018-06-29T11:15:20.491Z,-79.00
2018-06-29T11:16:20.514Z,-80.00
2018-06-29T11:17:20.513Z,-79.00
2018-06-29T11:18:20.676Z,-79.00
2018-06-29T11:19:20.533Z,-79.00
2018-06-29T11:20:21.717Z,-79.00
2018-06-29T11:21:20.579Z,-79.00
2018-06-29T11:22:20.676Z,-79.00
2018-06-29T11:23:20.612Z,-79.00
2018-06-29T11:24:20.695Z,-80.00
2018-06-29T11:25:20.652Z,-80.00
2018-06-29T11:26:20.726Z,-79.00
2018-06-29T11:27:20.672Z,-79.00
2018-06-29T11:28:20.710Z,-80.00
2018-06-29T11:29:20.693Z,-80.00
2018-06-29T11:30:20.852Z,-80.00
2018-06-29T11:31:20.807Z,-80.00
2018-06-29T11:32:20.833Z,-80.00
2018-06-29T11:33:20.747Z,-79.00
2018-06-29T11:34:20.842Z,-80.00
2018-06-29T11:35:20.822Z,-80.00
2018-06-29T11:36:20.867Z,-80.00
2018-06-29T11:37:20.819Z,-79.00
2018-06-29T11:38:20.886Z,-80.00
2018-06-29T11:39:20.876Z,-80.00
2018-06-29T11:40:20.896Z,-79.00
2018-06-29T11:41:20.912Z,-81.00
2018-06-29T11:42:21.046Z,-80.00
2018-06-29T11:43:20.955Z,-79.00
2018-06-29T11:44:21.104Z,-79.00
2018-06-29T11:45:20.926Z,-79.00
2018-06-29T11:46:21.037Z,-80.00
2018-06-29T11:47:20.965Z,-79.00
2018-06-29T11:48:21.046Z,-80.00
2018-06-29T11:49:21.013Z,-79.00
2018-06-29T11:50:21.082Z,-79.00
2018-06-29T11:51:21.095Z,-83.00
2018-06-29T11:52:22.125Z,-82.00
2018-06-29T11:53:21.082Z,-82.00
2018-06-29T11:54:27.121Z,-82.00
2018-06-29T11:55:21.108Z,-84.00
2018-06-29T11:56:21.211Z,-83.00
2018-06-29T11:57:21.124Z,-83.00
2018-06-29T11:58:26.144Z,-83.00
2018-06-29T11:59:21.144Z,-81.00
2018-06-29T12:00:22.320Z,-81.00
2018-06-29T12:01:21.201Z,-82.00
2018-06-29T12:02:28.109Z,-83.00
2018-06-29T12:03:21.207Z,-82.00
2018-06-29T12:04:22.266Z,-82.00
2018-06-29T12:05:21.222Z,-81.00
2018-06-29T12:06:21.375Z,-82.00
2018-06-29T12:07:21.307Z,-83.00
2018-06-29T12:08:21.384Z,-83.00
2018-06-29T12:09:21.301Z,-83.00
2018-06-29T12:10:21.403Z,-82.00
2018-06-29T12:11:21.362Z,-83.00
2018-06-29T12:12:33.089Z,-84.00
2018-06-29T12:13:21.437Z,-83.00
2018-06-29T12:14:21.533Z,-82.00
2018-06-29T12:15:21.417Z,-78.00
2018-06-29T12:16:21.556Z,-78.00
2018-06-29T12:17:21.462Z,-78.00
2018-06-29T12:18:21.528Z,-78.00
2018-06-29T12:19:21.453Z,-78.00
2018-06-29T12:20:21.511Z,-77.00
2018-06-29T12:21:21.495Z,-78.00
2018-06-29T12:22:21.652Z,-78.00
2018-06-29T12:23:21.555Z,-78.00
2018-06-29T12:24:23.626Z,-78.00
2018-06-29T12:25:21.545Z,-78.00
2018-06-29T12:26:21.672Z,-78.00
2018-06-29T12:27:21.630Z,-78.00
2018-06-29T12:28:21.658Z,-78.00